Time;durP1;ratioP1;P1;durP2;ratioP2;P2;SDS_P1;SDS_P2;PMS_P1;PMS_P2;Temp;Humidity;BMP_temperature;BMP_pressure;BME280_temperature;BME280_humidity;BME280_pressure;Samples;Min_cycle;Max_cycle;Signal;HPM_P1;HPM_P2
2023/03/22 00:00:12;;;;;;;214.43;80.97;;;;;;;11.92;100.00;99196.31;342041;28;1549;-76
2023/03/22 00:00:26;;;;;;;216.10;80.95;;;;;;;11.89;100.00;99199.09;341985;28;1229;-75
2023/03/22 00:00:37;;;;;;;212.43;80.57;;;;;;;11.85;100.00;99190.56;342194;28;1461;-77
2023/03/22 00:00:47;;;;;;;210.30;80.93;;;;;;;11.85;100.00;99194.94;342076;28;843;-76
2023/03/22 00:00:58;;;;;;;211.50;82.30;;;;;;;11.86;100.00;99186.16;340778;28;1224;-76
2023/03/22 00:01:13;;;;;;;212.53;82.33;;;;;;;11.89;100.00;99194.72;340780;29;857;-76
2023/03/22 00:01:23;;;;;;;209.40;82.40;;;;;;;11.93;100.00;99192.78;341093;28;2220;-76
2023/03/22 00:01:35;;;;;;;210.90;83.07;;;;;;;11.95;100.00;99190.91;344752;28;911;-74
2023/03/22 00:01:45;;;;;;;213.82;83.50;;;;;;;11.95;100.00;99189.13;344744;28;1423;-77
2023/03/22 00:01:57;;;;;;;213.77;81.55;;;;;;;11.94;100.00;99190.06;339281;29;1195;-76
2023/03/22 00:02:08;;;;;;;212.52;81.53;;;;;;;11.94;100.00;99194.47;343946;28;1034;-75
2023/03/22 00:02:18;;;;;;;213.00;81.63;;;;;;;11.96;100.00;99197.84;345143;28;1116;-74
2023/03/22 00:02:29;;;;;;;209.10;82.77;;;;;;;11.92;100.00;99191.94;343405;28;881;-74
2023/03/22 00:02:39;;;;;;;208.93;82.32;;;;;;;11.90;100.00;99192.94;343240;28;834;-76
2023/03/22 00:02:50;;;;;;;209.70;81.85;;;;;;;11.89;100.00;99192.09;343553;28;1004;-76
2023/03/22 00:03:01;;;;;;;214.60;82.40;;;;;;;11.92;100.00;99196.31;343380;28;810;-77
2023/03/22 00:03:12;;;;;;;215.07;81.97;;;;;;;11.94;100.00;99189.22;343431;28;1294;-77
2023/03/22 00:03:22;;;;;;;214.07;82.10;;;;;;;11.94;100.00;99189.22;343410;28;1005;-75
2023/03/22 00:03:34;;;;;;;213.03;81.73;;;;;;;11.95;100.00;99183.03;342323;28;2094;-74
2023/03/22 00:03:45;;;;;;;213.20;79.65;;;;;;;11.97;100.00;99194.31;343336;28;928;-74
2023/03/22 00:03:56;;;;;;;213.20;79.28;;;;;;;11.99;100.00;99189.81;341977;28;1433;-74
2023/03/22 00:04:08;;;;;;;211.60;79.97;;;;;;;12.02;100.00;99187.03;339697;29;982;-75
2023/03/22 00:04:18;;;;;;;212.05;81.65;;;;;;;12.04;100.00;99195.69;337036;29;1261;-74
2023/03/22 00:04:29;;;;;;;208.73;81.70;;;;;;;12.04;100.00;99185.19;340718;28;1288;-74
2023/03/22 00:04:41;;;;;;;208.77;82.28;;;;;;;12.04;100.00;99190.44;339549;29;1107;-74
2023/03/22 00:04:52;;;;;;;211.80;83.63;;;;;;;12.04;100.00;99185.19;336655;29;951;-75
2023/03/22 00:05:03;;;;;;;211.40;83.32;;;;;;;12.04;100.00;99187.81;336769;29;1372;-76
2023/03/22 00:05:13;;;;;;;211.32;83.00;;;;;;;12.04;100.00;99190.44;335507;29;1291;-75
2023/03/22 00:05:24;;;;;;;211.82;83.30;;;;;;;12.03;100.00;99188.72;337431;29;1278;-75
2023/03/22 00:05:34;;;;;;;215.03;86.10;;;;;;;12.02;100.00;99187.03;336322;29;1517;-75
2023/03/22 00:05:45;;;;;;;216.82;86.68;;;;;;;12.01;100.00;99189.75;336762;29;1294;-75
2023/03/22 00:05:56;;;;;;;216.80;87.27;;;;;;;11.99;100.00;99182.81;337735;29;1196;-75
2023/03/22 00:06:07;;;;;;;215.30;85.65;;;;;;;11.97;100.00;99189.06;336547;29;1522;-76
2023/03/22 00:06:18;;;;;;;216.02;83.85;;;;;;;11.93;100.00;99188.38;334882;29;1458;-75
2023/03/22 00:06:28;;;;;;;217.47;83.53;;;;;;;11.91;100.00;99184.97;335287;29;2339;-74
2023/03/22 00:06:39;;;;;;;221.77;84.25;;;;;;;11.89;100.00;99183.38;336365;29;1585;-74
2023/03/22 00:06:49;;;;;;;220.80;82.77;;;;;;;11.89;100.00;99183.38;335489;29;1504;-75
2023/03/22 00:07:00;;;;;;;217.30;82.30;;;;;;;11.88;100.00;99187.78;335546;29;1018;-74
2023/03/22 00:07:10;;;;;;;212.02;81.55;;;;;;;11.85;100.00;99185.31;336611;29;968;-74
2023/03/22 00:07:20;;;;;;;214.40;83.43;;;;;;;11.83;100.00;99183.69;331658;29;1379;-75
2023/03/22 00:07:31;;;;;;;214.40;83.10;;;;;;;11.80;100.00;99182.06;336586;29;1411;-75
2023/03/22 00:07:42;;;;;;;215.97;82.87;;;;;;;11.81;100.00;99182.94;335625;29;878;-76
2023/03/22 00:07:56;;;;;;;213.00;82.05;;;;;;;11.82;100.00;99189.88;331927;29;1328;-76
2023/03/22 00:08:07;;;;;;;210.95;81.90;;;;;;;11.81;100.00;99188.16;337385;29;9408;-76
2023/03/22 00:08:18;;;;;;;208.05;81.78;;;;;;;11.80;100.00;99181.22;337277;29;1545;-75
2023/03/22 00:08:28;;;;;;;206.63;81.83;;;;;;;11.81;100.00;99178.53;338006;29;1312;-76
2023/03/22 00:08:42;;;;;;;208.50;83.10;;;;;;;11.83;100.00;99184.53;334148;29;2090;-76
2023/03/22 00:08:52;;;;;;;210.45;81.60;;;;;;;11.83;100.00;99183.69;334398;29;2062;-76
2023/03/22 00:09:03;;;;;;;210.15;80.18;;;;;;;11.82;100.00;99185.47;336806;29;1448;-76
2023/03/22 00:09:13;;;;;;;211.20;81.10;;;;;;;11.83;100.00;99183.69;332353;29;807;-77
2023/03/22 00:09:24;;;;;;;212.43;82.38;;;;;;;11.84;100.00;99182.75;332958;29;1228;-77
2023/03/22 00:09:35;;;;;;;215.73;82.73;;;;;;;11.85;100.00;99181.84;338530;29;1334;-76
2023/03/22 00:09:45;;;;;;;215.02;82.18;;;;;;;11.88;100.00;99185.16;336934;29;1347;-77
2023/03/22 00:09:56;;;;;;;214.20;82.35;;;;;;;11.91;100.00;99184.13;326741;29;1964;-76
2023/03/22 00:10:06;;;;;;;215.70;84.13;;;;;;;11.92;100.00;99183.22;328380;29;1904;-76
2023/03/22 00:10:17;;;;;;;220.73;86.22;;;;;;;11.91;100.00;99184.13;326266;30;1760;-76
2023/03/22 00:10:27;;;;;;;223.37;88.30;;;;;;;11.88;100.00;99185.16;324537;30;3969;-76
2023/03/22 00:10:39;;;;;;;218.20;87.32;;;;;;;11.86;100.00;99194.03;327794;29;3443;-76
2023/03/22 00:10:49;;;;;;;218.73;86.18;;;;;;;11.84;100.00;99182.75;328382;29;2354;-76
2023/03/22 00:11:00;;;;;;;218.18;83.75;;;;;;;11.82;100.00;99185.47;328280;29;1725;-76
2023/03/22 00:11:11;;;;;;;217.13;83.03;;;;;;;11.80;100.00;99189.94;321678;30;2429;-76
2023/03/22 00:11:23;;;;;;;212.73;82.10;;;;;;;11.78;100.00;99183.94;322938;30;1836;-76
2023/03/22 00:11:33;;;;;;;213.07;82.75;;;;;;;11.77;100.00;99192.72;322363;30;1456;-76
2023/03/22 00:11:43;;;;;;;213.65;83.53;;;;;;;11.76;100.00;99190.16;322013;30;908;-76
2023/03/22 00:11:54;;;;;;;213.07;83.90;;;;;;;11.76;100.00;99184.91;320443;30;1790;-76
2023/03/22 00:12:05;;;;;;;211.15;82.72;;;;;;;11.79;100.00;99192.66;319620;30;2346;-76
2023/03/22 00:12:15;;;;;;;209.23;81.60;;;;;;;11.79;100.00;99188.25;320864;30;861;-77
2023/03/22 00:12:25;;;;;;;211.55;82.03;;;;;;;11.83;100.00;99186.31;317800;30;2489;-76
2023/03/22 00:12:36;;;;;;;219.00;84.77;;;;;;;11.81;100.00;99188.16;314050;30;2124;-76
2023/03/22 00:12:46;;;;;;;223.35;85.30;;;;;;;11.73;100.00;99198.16;310303;31;2820;-76
2023/03/22 00:12:56;;;;;;;225.57;86.50;;;;;;;11.73;100.00;99195.56;311582;31;1238;-77
2023/03/22 00:13:08;;;;;;;219.43;85.28;;;;;;;11.72;100.00;99193.84;310409;31;3435;-76
2023/03/22 00:13:18;;;;;;;215.98;84.68;;;;;;;11.71;100.00;99193.00;310351;31;3378;-77
2023/03/22 00:13:29;;;;;;;213.52;83.78;;;;;;;11.68;100.00;99187.09;310581;31;1266;-76
2023/03/22 00:13:41;;;;;;;213.03;84.20;;;;;;;11.65;100.00;99194.22;309181;31;1992;-77
2023/03/22 00:13:52;;;;;;;213.70;83.22;;;;;;;11.65;100.00;99198.59;310735;31;1976;-75
2023/03/22 00:14:03;;;;;;;211.50;81.73;;;;;;;11.68;100.00;99197.59;313518;31;2738;-75
2023/03/22 00:14:15;;;;;;;211.18;81.32;;;;;;;11.69;100.00;99188.81;313853;31;916;-77
2023/03/22 00:14:26;;;;;;;211.75;82.03;;;;;;;11.72;100.00;99193.84;310978;31;3708;-78
2023/03/22 00:14:36;;;;;;;215.67;84.00;;;;;;;11.73;100.00;99187.69;308526;31;3745;-76
2023/03/22 00:14:48;;;;;;;213.70;84.65;;;;;;;11.75;100.00;99191.94;307971;31;3383;-76
2023/03/22 00:14:59;;;;;;;218.18;86.35;;;;;;;11.80;100.00;99192.56;309577;31;998;-76
2023/03/22 00:15:10;;;;;;;215.43;85.75;;;;;;;11.82;100.00;99200.34;307557;31;3685;-75
2023/03/22 00:15:21;;;;;;;212.27;84.38;;;;;;;11.84;100.00;99196.72;306772;32;4075;-76
2023/03/22 00:15:31;;;;;;;208.63;83.30;;;;;;;11.86;100.00;99191.41;305993;31;3816;-76
2023/03/22 00:15:43;;;;;;;210.30;83.60;;;;;;;11.88;100.00;99200.03;308554;32;856;-76
2023/03/22 00:15:54;;;;;;;213.02;84.18;;;;;;;11.88;100.00;99189.53;304819;32;2781;-76
2023/03/22 00:16:05;;;;;;;213.93;83.70;;;;;;;11.89;100.00;99189.47;304494;32;1915;-76
2023/03/22 00:16:16;;;;;;;212.23;83.40;;;;;;;11.93;100.00;99195.41;304036;32;1324;-75
2023/03/22 00:16:27;;;;;;;216.88;85.85;;;;;;;11.93;100.00;99192.78;297885;33;1985;-77
2023/03/22 00:16:37;;;;;;;219.10;87.00;;;;;;;11.93;100.00;99198.00;296745;32;4643;-76
2023/03/22 00:16:48;;;;;;;219.67;87.53;;;;;;;11.90;100.00;99198.19;296505;32;4969;-76
2023/03/22 00:16:59;;;;;;;219.48;87.60;;;;;;;11.86;100.00;99191.41;298020;33;1256;-76
2023/03/22 00:17:10;;;;;;;217.18;86.68;;;;;;;11.83;100.00;99196.81;295678;33;4824;-76
2023/03/22 00:17:21;;;;;;;214.60;85.65;;;;;;;11.74;100.00;99194.63;295533;33;5291;-77
2023/03/22 00:17:32;;;;;;;214.55;86.05;;;;;;;11.63;100.00;99196.06;292310;33;5425;-77
2023/03/22 00:17:44;;;;;;;219.10;86.28;;;;;;;11.61;100.00;99192.66;295012;33;1253;-77
2023/03/22 00:17:55;;;;;;;219.05;86.05;;;;;;;11.62;100.00;99193.50;295001;33;5451;-76
2023/03/22 00:18:05;;;;;;;217.75;85.80;;;;;;;11.61;100.00;99192.66;291832;33;4201;-76
2023/03/22 00:18:16;;;;;;;218.63;85.93;;;;;;;11.59;100.00;99191.91;288360;34;4651;-75
2023/03/22 00:18:27;;;;;;;220.85;84.90;;;;;;;11.51;100.00;99191.44;286320;34;1420;-76
2023/03/22 00:18:37;;;;;;;225.32;85.80;;;;;;;11.49;100.00;99190.69;288180;34;5069;-77
2023/03/22 00:18:47;;;;;;;224.83;85.67;;;;;;;11.52;100.00;99192.28;287707;34;6348;-76
2023/03/22 00:18:58;;;;;;;222.75;85.40;;;;;;;11.54;100.00;99191.28;285441;34;1399;-77
2023/03/22 00:19:08;;;;;;;220.97;86.50;;;;;;;11.56;100.00;99192.06;281103;34;8129;-77
2023/03/22 00:19:19;;;;;;;221.03;87.30;;;;;;;11.59;100.00;99194.53;279003;34;6858;-76
2023/03/22 00:19:32;;;;;;;225.55;88.82;;;;;;;11.58;100.00;99192.81;278328;35;3641;-76
2023/03/22 00:19:43;;;;;;;222.80;88.40;;;;;;;11.46;100.00;99192.59;276970;35;3024;-76
2023/03/22 00:19:54;;;;;;;222.48;87.25;;;;;;;11.43;100.00;99196.22;276849;35;7801;-76
2023/03/22 00:20:05;;;;;;;223.30;86.40;;;;;;;11.44;100.00;99190.06;275128;35;7444;-77
2023/03/22 00:20:16;;;;;;;222.48;86.65;;;;;;;11.38;100.00;99185.13;270883;35;5639;-76
2023/03/22 00:20:30;;;;;;;218.53;87.23;;;;;;;11.34;100.00;99191.44;273965;36;848;-76
2023/03/22 00:22:30;;;;;;;209.73;79.16;;;;;;;11.22;100.00;99189.47;2502093;27;20280;-76
2023/03/22 00:22:40;;;;;;;210.68;80.15;;;;;;;11.20;100.00;99186.09;352994;28;1356;-76
2023/03/22 00:22:50;;;;;;;214.47;81.83;;;;;;;11.20;100.00;99191.31;350168;28;1202;-75
2023/03/22 00:23:01;;;;;;;220.53;84.47;;;;;;;11.22;100.00;99186.84;348841;28;919;-75
2023/03/22 00:23:11;;;;;;;219.20;84.15;;;;;;;11.24;100.00;99192.88;348970;28;1336;-75
2023/03/22 00:23:22;;;;;;;219.23;85.20;;;;;;;11.25;100.00;99181.47;348764;28;1322;-75
2023/03/22 00:23:32;;;;;;;215.93;85.85;;;;;;;11.24;100.00;99180.63;348915;28;808;-75
2023/03/22 00:23:43;;;;;;;218.10;86.10;;;;;;;11.26;100.00;99183.16;347423;28;1311;-76
2023/03/22 00:23:53;;;;;;;220.35;84.68;;;;;;;11.28;100.00;99183.91;347705;28;1207;-76
2023/03/22 00:24:06;;;;;;;220.20;83.00;;;;;;;11.30;100.00;99189.91;350154;28;1203;-75
2023/03/22 00:24:16;;;;;;;219.32;83.88;;;;;;;11.32;100.00;99188.91;347504;28;1301;-76
2023/03/22 00:24:26;;;;;;;217.67;83.53;;;;;;;11.37;100.00;99190.44;348796;28;1219;-76
2023/03/22 00:24:37;;;;;;;220.35;85.45;;;;;;;11.38;100.00;99190.38;347781;28;1231;-76
2023/03/22 00:24:47;;;;;;;221.93;84.50;;;;;;;11.40;100.00;99195.53;348924;28;947;-75
2023/03/22 00:24:59;;;;;;;221.32;83.90;;;;;;;11.40;100.00;99188.53;348756;28;1489;-77
2023/03/22 00:25:09;;;;;;;216.80;82.72;;;;;;;11.39;100.00;99191.22;347658;28;1281;-77
2023/03/22 00:25:20;;;;;;;213.85;82.90;;;;;;;11.41;100.00;99195.47;347444;28;1291;-76
2023/03/22 00:25:30;;;;;;;214.60;82.27;;;;;;;11.43;100.00;99193.59;346141;28;872;-76
2023/03/22 00:25:41;;;;;;;216.27;81.67;;;;;;;11.45;100.00;99185.66;347433;28;1315;-76
2023/03/22 00:25:51;;;;;;;216.05;81.60;;;;;;;11.44;100.00;99194.44;344432;28;842;-76
2023/03/22 00:26:02;;;;;;;212.90;82.47;;;;;;;11.39;100.00;99185.97;343501;28;801;-75
2023/03/22 00:26:12;;;;;;;212.93;84.20;;;;;;;11.35;100.00;99195.75;347345;28;1168;-76
2023/03/22 00:26:23;;;;;;;214.75;84.80;;;;;;;11.34;100.00;99187.06;345924;28;1019;-76
2023/03/22 00:26:33;;;;;;;217.80;85.23;;;;;;;11.32;100.00;99188.91;345053;28;990;-75
2023/03/22 00:26:46;;;;;;;215.27;83.57;;;;;;;11.31;100.00;99189.84;343487;28;1178;-75
2023/03/22 00:26:57;;;;;;;213.77;83.78;;;;;;;11.29;100.00;99190.84;347051;28;1111;-77
2023/03/22 00:27:07;;;;;;;220.75;84.97;;;;;;;11.25;100.00;99191.94;344823;28;874;-76
2023/03/22 00:27:18;;;;;;;222.33;84.97;;;;;;;11.25;100.00;99186.69;343385;28;813;-76
2023/03/22 00:27:29;;;;;;;222.48;85.10;;;;;;;11.25;100.00;99189.31;344655;28;1235;-76
2023/03/22 00:27:40;;;;;;;215.15;84.43;;;;;;;11.25;100.00;99189.31;346148;28;1434;-76
2023/03/22 00:27:50;;;;;;;217.38;85.55;;;;;;;11.27;100.00;99184.81;346442;28;913;-77
2023/03/22 00:28:02;;;;;;;221.27;87.27;;;;;;;11.28;100.00;99183.91;344691;28;1415;-76
2023/03/22 00:28:13;;;;;;;221.55;88.22;;;;;;;11.27;100.00;99183.06;345945;28;1413;-76
2023/03/22 00:28:23;;;;;;;217.57;87.00;;;;;;;11.28;100.00;99189.13;347472;28;932;-76
2023/03/22 00:28:34;;;;;;;218.20;86.97;;;;;;;11.27;100.00;99190.06;346109;28;1208;-76
2023/03/22 00:28:45;;;;;;;218.30;85.38;;;;;;;11.26;100.00;99191.84;343381;28;3565;-76
2023/03/22 00:28:55;;;;;;;222.07;84.87;;;;;;;11.27;100.00;99188.28;343259;28;1148;-76
2023/03/22 00:29:06;;;;;;;225.13;85.47;;;;;;;11.30;100.00;99184.66;343605;28;1222;-76
2023/03/22 00:29:18;;;;;;;224.00;85.35;;;;;;;11.28;100.00;99183.91;340747;29;1325;-76
2023/03/22 00:29:28;;;;;;;222.30;85.20;;;;;;;11.29;100.00;99188.22;340646;28;1415;-75
2023/03/22 00:29:39;;;;;;;218.55;84.03;;;;;;;11.31;100.00;99188.97;343384;28;1473;-76
2023/03/22 00:29:52;;;;;;;216.77;83.33;;;;;;;11.33;100.00;99187.97;346050;28;1196;-76
2023/03/22 00:30:04;;;;;;;223.73;83.50;;;;;;;11.34;100.00;99186.22;343471;28;849;-76
2023/03/22 00:30:14;;;;;;;222.27;82.95;;;;;;;11.31;100.00;99181.13;343414;28;1764;-76
2023/03/22 00:30:25;;;;;;;220.80;83.82;;;;;;;11.28;100.00;99183.91;343768;28;922;-75
2023/03/22 00:30:35;;;;;;;215.73;83.63;;;;;;;11.24;100.00;99185.00;340478;29;1355;-76
2023/03/22 00:30:54;;;;;;;217.93;85.25;;;;;;;11.23;100.00;99176.31;339292;29;1575;-76
2023/03/22 00:31:04;;;;;;;221.05;86.63;;;;;;;11.26;100.00;99186.59;334362;29;1659;-75
2023/03/22 00:31:15;;;;;;;220.60;84.32;;;;;;;11.26;100.00;99185.78;338119;29;1391;-75
2023/03/22 00:31:25;;;;;;;220.90;84.53;;;;;;;11.25;100.00;99181.47;336309;29;1290;-76
2023/03/22 00:31:36;;;;;;;221.13;83.30;;;;;;;11.23;100.00;99176.31;336877;29;971;-76
2023/03/22 00:31:47;;;;;;;221.23;85.37;;;;;;;11.20;100.00;99181.69;333507;29;1193;-76
2023/03/22 00:31:58;;;;;;;226.88;93.20;;;;;;;11.17;100.00;99188.84;335922;29;1241;-76
2023/03/22 00:32:08;;;;;;;221.73;92.68;;;;;;;11.17;100.00;99181.00;335950;29;1374;-76
2023/03/22 00:32:20;;;;;;;219.53;86.83;;;;;;;11.16;100.00;99176.69;337822;29;1439;-76
2023/03/22 00:32:34;;;;;;;217.73;81.13;;;;;;;11.20;100.00;99181.69;333112;29;760;-77
2023/03/22 00:32:45;;;;;;;215.48;80.63;;;;;;;11.15;100.00;99175.84;334060;29;1491;-77
2023/03/22 00:32:55;;;;;;;216.82;82.07;;;;;;;11.16;100.00;99185.38;334792;29;1561;-77
2023/03/22 00:33:06;;;;;;;217.57;82.53;;;;;;;11.16;100.00;99184.53;331901;29;2117;-76
2023/03/22 00:33:16;;;;;;;218.60;83.77;;;;;;;11.17;100.00;99186.22;330566;29;930;-76
2023/03/22 00:33:27;;;;;;;222.10;84.55;;;;;;;11.18;100.00;99185.31;339292;29;1792;-76
2023/03/22 00:33:37;;;;;;;223.50;85.90;;;;;;;11.19;100.00;99180.00;338423;29;1661;-76
2023/03/22 00:33:48;;;;;;;223.73;87.57;;;;;;;11.21;100.00;99187.78;336942;29;1214;-76
2023/03/22 00:33:58;;;;;;;218.68;86.55;;;;;;;11.25;100.00;99186.69;336762;29;874;-76
2023/03/22 00:34:09;;;;;;;221.63;87.13;;;;;;;11.25;100.00;99184.94;336631;29;1423;-77
2023/03/22 00:34:19;;;;;;;219.80;86.28;;;;;;;11.25;100.00;99182.31;333710;29;1350;-76
2023/03/22 00:34:31;;;;;;;224.10;87.03;;;;;;;11.27;100.00;99182.19;330529;29;1459;-77
2023/03/22 00:34:41;;;;;;;221.68;86.72;;;;;;;11.31;100.00;99181.13;334340;29;1846;-76
2023/03/22 00:34:52;;;;;;;218.33;85.73;;;;;;;11.33;100.00;99187.13;334917;29;1601;-76
2023/03/22 00:35:06;;;;;;;213.43;84.43;;;;;;;11.33;100.00;99182.75;332833;29;1370;-76
2023/03/22 00:35:17;;;;;;;214.77;83.38;;;;;;;11.32;100.00;99180.19;329274;29;918;-76
2023/03/22 00:35:27;;;;;;;220.30;83.77;;;;;;;11.31;100.00;99183.75;326411;29;2487;-76
2023/03/22 00:35:38;;;;;;;223.03;84.00;;;;;;;11.29;100.00;99185.59;327083;29;2520;-76
2023/03/22 00:35:52;;;;;;;222.43;84.83;;;;;;;11.28;100.00;99183.91;325599;30;1254;-76
2023/03/22 00:36:05;;;;;;;218.60;84.18;;;;;;;11.25;100.00;99186.69;327828;30;1311;-76
2023/03/22 00:36:15;;;;;;;218.60;83.53;;;;;;;11.20;100.00;99186.09;329292;30;1377;-76
2023/03/22 00:36:26;;;;;;;215.65;83.22;;;;;;;11.14;100.00;99182.00;321864;30;1781;-76
2023/03/22 00:36:36;;;;;;;217.90;84.23;;;;;;;11.12;100.00;99188.22;322961;30;2080;-76
2023/03/22 00:36:47;;;;;;;223.30;83.97;;;;;;;11.08;100.00;99182.31;320782;30;1286;-76
2023/03/22 00:36:57;;;;;;;223.90;85.10;;;;;;;11.08;100.00;99181.44;322061;30;2194;-76
2023/03/22 00:37:08;;;;;;;219.57;84.15;;;;;;;11.07;100.00;99174.53;318525;30;2476;-76
2023/03/22 00:37:18;;;;;;;217.37;85.27;;;;;;;11.08;100.00;99184.06;318226;30;2505;-76
2023/03/22 00:37:33;;;;;;;218.35;84.93;;;;;;;11.08;100.00;99181.44;323066;30;1515;-76
2023/03/22 00:37:43;;;;;;;218.02;84.90;;;;;;;11.09;100.00;99177.91;324822;30;2802;-76
2023/03/22 00:37:54;;;;;;;218.02;85.15;;;;;;;11.07;100.00;99182.38;319146;30;4717;-76
2023/03/22 00:38:13;;;;;;;226.37;85.60;;;;;;;11.07;100.00;99185.00;313693;31;2307;-76
2023/03/22 00:38:24;;;;;;;226.85;84.05;;;;;;;11.05;100.00;99186.84;315034;31;5791;-77
2023/03/22 00:38:35;;;;;;;220.13;84.80;;;;;;;11.05;100.00;99187.69;313974;30;2264;-76
2023/03/22 00:38:46;;;;;;;215.90;85.35;;;;;;;11.03;100.00;99188.69;315183;31;934;-77
2023/03/22 00:38:57;;;;;;;218.70;87.70;;;;;;;11.02;100.00;99187.84;314076;31;2697;-76
2023/03/22 00:39:07;;;;;;;221.02;88.75;;;;;;;11.03;100.00;99188.69;312354;30;2823;-77
2023/03/22 00:39:19;;;;;;;225.43;89.47;;;;;;;10.99;100.00;99180.97;311872;31;926;-77
2023/03/22 00:39:30;;;;;;;230.63;89.43;;;;;;;10.99;100.00;99190.59;310521;31;5297;-76
2023/03/22 00:39:41;;;;;;;231.50;88.87;;;;;;;10.96;100.00;99188.97;311307;31;3928;-75
2023/03/22 00:39:51;;;;;;;230.52;90.53;;;;;;;10.95;100.00;99187.28;310404;31;3815;-75
2023/03/22 00:40:09;;;;;;;225.40;88.00;;;;;;;10.95;100.00;99187.28;311751;31;931;-75
2023/03/22 00:40:19;;;;;;;215.82;83.38;;;;;;;10.96;100.00;99181.13;309148;31;3002;-75
2023/03/22 00:40:30;;;;;;;214.57;83.60;;;;;;;10.97;100.00;99189.84;310644;31;863;-76
2023/03/22 00:40:40;;;;;;;215.38;82.68;;;;;;;10.93;100.00;99183.91;307781;31;3151;-75
2023/03/22 00:40:51;;;;;;;223.25;83.25;;;;;;;10.93;100.00;99189.13;305900;31;3467;-75
2023/03/22 00:41:04;;;;;;;225.10;83.70;;;;;;;10.90;100.00;99184.03;307326;32;1639;-76
2023/03/22 00:41:19;;;;;;;224.25;85.93;;;;;;;10.90;100.00;99181.44;305252;32;1583;-76
2023/03/22 00:41:30;;;;;;;227.23;87.30;;;;;;;10.94;100.00;99184.75;303273;32;1083;-76
2023/03/22 00:41:40;;;;;;;226.47;86.10;;;;;;;10.93;100.00;99186.53;301056;32;4483;-76
2023/03/22 00:41:50;;;;;;;221.57;84.85;;;;;;;10.95;100.00;99186.44;298872;32;5326;-76
2023/03/22 00:42:03;;;;;;;215.47;83.97;;;;;;;10.91;100.00;99180.50;300023;32;1313;-76
2023/03/22 00:42:14;;;;;;;216.02;83.38;;;;;;;10.91;100.00;99179.66;290165;34;1405;-76
2023/03/22 00:42:24;;;;;;;221.30;83.93;;;;;;;10.91;100.00;99183.13;287640;34;5902;-76
2023/03/22 00:42:36;;;;;;;221.63;84.80;;;;;;;10.92;100.00;99179.59;283746;34;4394;-76
2023/03/22 00:42:47;;;;;;;225.85;86.68;;;;;;;10.93;100.00;99181.28;286342;34;976;-76
2023/03/22 00:42:57;;;;;;;222.93;87.85;;;;;;;10.93;100.00;99183.06;283103;34;4781;-76
2023/03/22 00:43:08;;;;;;;222.97;87.80;;;;;;;10.91;100.00;99183.13;283323;34;5999;-76
2023/03/22 00:43:19;;;;;;;219.48;86.53;;;;;;;10.90;100.00;99184.03;285289;34;2500;-76
2023/03/22 00:45:40;;;;;;;210.00;77.39;;;;;;;10.96;100.00;99182.91;2502206;27;20485;-76
2023/03/22 00:45:52;;;;;;;221.03;82.70;;;;;;;10.96;100.00;99181.13;352907;28;1340;-76
2023/03/22 00:46:03;;;;;;;220.82;83.03;;;;;;;10.97;100.00;99182.81;350275;28;1344;-76
2023/03/22 00:46:14;;;;;;;221.68;83.15;;;;;;;10.96;100.00;99178.50;348910;28;999;-76
2023/03/22 00:46:24;;;;;;;218.77;82.63;;;;;;;10.96;100.00;99182.91;348933;28;1223;-76
2023/03/22 00:46:36;;;;;;;219.73;82.10;;;;;;;10.97;100.00;99180.22;349075;28;958;-76
2023/03/22 00:46:47;;;;;;;216.50;81.50;;;;;;;10.96;100.00;99181.13;348790;28;1358;-76
2023/03/22 00:46:57;;;;;;;214.95;82.80;;;;;;;10.99;100.00;99178.38;348323;28;3359;-75
2023/03/22 00:47:08;;;;;;;216.00;84.75;;;;;;;11.04;100.00;99175.53;346729;28;3097;-77
2023/03/22 00:47:18;;;;;;;218.60;86.17;;;;;;;11.04;100.00;99179.91;348020;28;1219;-76
2023/03/22 00:47:29;;;;;;;220.03;85.57;;;;;;;11.03;100.00;99179.06;350219;28;1226;-75
2023/03/22 00:47:39;;;;;;;218.93;83.30;;;;;;;11.04;100.00;99179.91;350260;28;813;-75
2023/03/22 00:47:50;;;;;;;219.67;83.20;;;;;;;11.04;100.00;99186.00;348879;28;1340;-77
2023/03/22 00:48:00;;;;;;;219.32;82.30;;;;;;;11.03;100.00;99178.22;348715;28;1418;-76
2023/03/22 00:48:11;;;;;;;220.83;82.23;;;;;;;11.03;100.00;99183.44;348773;28;1202;-75
2023/03/22 00:48:22;;;;;;;218.73;82.13;;;;;;;11.04;100.00;99179.91;347370;28;1220;-75
2023/03/22 00:48:32;;;;;;;222.55;83.30;;;;;;;11.07;100.00;99179.75;347491;28;928;-76
2023/03/22 00:48:43;;;;;;;222.32;83.70;;;;;;;11.09;100.00;99177.91;350351;28;867;-76
2023/03/22 00:48:54;;;;;;;224.23;84.67;;;;;;;11.10;100.00;99179.59;351628;28;1274;-76
2023/03/22 00:49:06;;;;;;;219.40;83.07;;;;;;;11.08;100.00;99184.06;350337;28;886;-76
2023/03/22 00:49:17;;;;;;;218.05;80.80;;;;;;;11.05;100.00;99178.97;348860;28;986;-76
2023/03/22 00:49:29;;;;;;;216.45;80.50;;;;;;;11.04;100.00;99177.28;347397;28;1231;-77
2023/03/22 00:49:39;;;;;;;222.95;82.10;;;;;;;11.04;100.00;99179.91;345747;28;1037;-74
2023/03/22 00:49:49;;;;;;;218.77;82.25;;;;;;;11.05;100.00;99186.84;345912;28;1470;-77
2023/03/22 00:50:01;;;;;;;227.93;83.60;;;;;;;11.02;100.00;99187.00;343436;28;1059;-76
2023/03/22 00:50:11;;;;;;;225.52;84.68;;;;;;;10.98;100.00;99181.91;342047;28;1452;-75
2023/03/22 00:50:21;;;;;;;224.48;83.85;;;;;;;10.98;100.00;99175.81;342016;28;952;-76
2023/03/22 00:50:32;;;;;;;216.07;83.17;;;;;;;10.97;100.00;99174.97;343433;28;1391;-75
2023/03/22 00:50:42;;;;;;;214.98;82.10;;;;;;;11.00;100.00;99182.69;343284;28;1381;-75
2023/03/22 00:50:52;;;;;;;215.70;83.53;;;;;;;11.00;100.00;99173.97;342077;28;1370;-75
2023/03/22 00:51:03;;;;;;;213.23;82.13;;;;;;;11.04;100.00;99178.13;343894;28;841;-76
2023/03/22 00:51:14;;;;;;;215.55;83.72;;;;;;;11.07;100.00;99169.28;343356;28;1257;-75
2023/03/22 00:51:24;;;;;;;215.98;82.40;;;;;;;11.11;100.00;99181.31;343292;28;1375;-75
2023/03/22 00:51:35;;;;;;;218.93;83.40;;;;;;;11.13;100.00;99175.06;343107;28;1375;-76
2023/03/22 00:51:45;;;;;;;218.73;82.57;;;;;;;11.15;100.00;99177.59;343242;28;1258;-76
2023/03/22 00:51:55;;;;;;;219.70;83.63;;;;;;;11.19;100.00;99179.16;340691;29;1361;-76
2023/03/22 00:52:06;;;;;;;218.88;82.93;;;;;;;11.22;100.00;99179.84;340655;29;1095;-77
2023/03/22 00:52:16;;;;;;;219.70;84.17;;;;;;;11.24;100.00;99175.38;341619;28;1408;-75
2023/03/22 00:52:27;;;;;;;223.00;85.37;;;;;;;11.26;100.00;99175.31;340613;29;1269;-76
2023/03/22 00:52:38;;;;;;;220.55;84.00;;;;;;;11.28;100.00;99181.28;341770;28;1263;-76
2023/03/22 00:52:48;;;;;;;218.17;83.33;;;;;;;11.31;100.00;99183.75;340704;29;1360;-76
2023/03/22 00:52:59;;;;;;;211.73;81.80;;;;;;;11.31;100.00;99179.34;340719;28;1318;-76
2023/03/22 00:53:09;;;;;;;215.07;82.30;;;;;;;11.31;100.00;99173.25;342040;28;1356;-76
2023/03/22 00:53:20;;;;;;;221.55;83.35;;;;;;;11.35;100.00;99185.28;337833;29;880;-77
2023/03/22 00:53:31;;;;;;;226.57;85.73;;;;;;;11.34;100.00;99181.81;336731;29;1279;-76
2023/03/22 00:53:42;;;;;;;224.85;84.97;;;;;;;11.32;100.00;99177.59;338124;29;1295;-75
2023/03/22 00:53:53;;;;;;;217.97;83.13;;;;;;;11.29;100.00;99181.19;339468;29;1280;-76
2023/03/22 00:54:04;;;;;;;217.13;82.22;;;;;;;11.27;100.00;99176.97;340514;28;1379;-76
2023/03/22 00:54:16;;;;;;;218.07;84.07;;;;;;;11.29;100.00;99180.34;336872;29;1461;-75
2023/03/22 00:54:26;;;;;;;218.70;85.05;;;;;;;11.30;100.00;99179.44;338146;29;952;-75
2023/03/22 00:54:37;;;;;;;214.73;84.53;;;;;;;11.28;100.00;99178.66;337058;29;1383;-76
2023/03/22 00:54:47;;;;;;;217.87;83.53;;;;;;;11.24;100.00;99179.78;338717;29;955;-75